sensor_id;sensor_type;location;lat;lon;timestamp;temperature;humidity
19220;DHT22;9744;49.364;7.484;2023-04-25T00:03:31;5.90;99.90
19220;DHT22;9744;49.364;7.484;2023-04-25T00:05:58;6.00;99.90
19220;DHT22;9744;49.364;7.484;2023-04-25T00:08:28;6.00;99.90
19220;DHT22;9744;49.364;7.484;2023-04-25T00:10:56;6.00;99.90
19220;DHT22;9744;49.364;7.484;2023-04-25T00:13:23;6.10;99.90
19220;DHT22;9744;49.364;7.484;2023-04-25T00:15:51;6.10;99.90
19220;DHT22;9744;49.364;7.484;2023-04-25T00:18:19;6.10;99.90
19220;DHT22;9744;49.364;7.484;2023-04-25T00:20:48;6.10;99.90
19220;DHT22;9744;49.364;7.484;2023-04-25T00:23:16;6.20;99.90
19220;DHT22;9744;49.364;7.484;2023-04-25T00:25:44;6.50;99.90
19220;DHT22;9744;49.364;7.484;2023-04-25T00:28:11;6.30;99.90
19220;DHT22;9744;49.364;7.484;2023-04-25T00:30:39;6.30;99.90
19220;DHT22;9744;49.364;7.484;2023-04-25T00:33:06;6.30;99.90
19220;DHT22;9744;49.364;7.484;2023-04-25T00:35:34;6.20;99.90
19220;DHT22;9744;49.364;7.484;2023-04-25T00:38:02;6.20;99.90
19220;DHT22;9744;49.364;7.484;2023-04-25T00:40:30;6.40;99.90
19220;DHT22;9744;49.364;7.484;2023-04-25T00:42:57;6.50;99.90
19220;DHT22;9744;49.364;7.484;2023-04-25T00:45:27;6.40;99.90
19220;DHT22;9744;49.364;7.484;2023-04-25T00:47:55;6.10;99.90
19220;DHT22;9744;49.364;7.484;2023-04-25T00:50:23;6.10;99.90
19220;DHT22;9744;49.364;7.484;2023-04-25T00:52:50;6.10;99.90
19220;DHT22;9744;49.364;7.484;2023-04-25T00:55:19;6.10;99.90
19220;DHT22;9744;49.364;7.484;2023-04-25T00:57:47;6.00;99.90
19220;DHT22;9744;49.364;7.484;2023-04-25T01:00:15;6.00;99.90
19220;DHT22;9744;49.364;7.484;2023-04-25T01:02:43;6.00;99.90
19220;DHT22;9744;49.364;7.484;2023-04-25T01:05:11;6.00;99.90
19220;DHT22;9744;49.364;7.484;2023-04-25T01:07:39;6.10;99.90
19220;DHT22;9744;49.364;7.484;2023-04-25T01:10:07;6.00;99.90
19220;DHT22;9744;49.364;7.484;2023-04-25T01:12:36;6.00;99.90
19220;DHT22;9744;49.364;7.484;2023-04-25T01:15:04;6.00;99.90
19220;DHT22;9744;49.364;7.484;2023-04-25T01:17:33;5.90;99.90
19220;DHT22;9744;49.364;7.484;2023-04-25T01:20:03;5.90;99.90
19220;DHT22;9744;49.364;7.484;2023-04-25T01:22:33;5.80;99.90
19220;DHT22;9744;49.364;7.484;2023-04-25T01:25:00;5.80;99.90
19220;DHT22;9744;49.364;7.484;2023-04-25T01:27:27;5.80;99.90
19220;DHT22;9744;49.364;7.484;2023-04-25T01:29:56;5.80;99.90
19220;DHT22;9744;49.364;7.484;2023-04-25T01:32:24;5.70;99.90
19220;DHT22;9744;49.364;7.484;2023-04-25T01:34:52;5.80;99.90
19220;DHT22;9744;49.364;7.484;2023-04-25T01:37:19;5.80;99.90
19220;DHT22;9744;49.364;7.484;2023-04-25T01:39:48;5.80;99.90
19220;DHT22;9744;49.364;7.484;2023-04-25T01:42:16;5.80;99.90
19220;DHT22;9744;49.364;7.484;2023-04-25T01:44:43;5.80;99.90
19220;DHT22;9744;49.364;7.484;2023-04-25T01:47:16;5.80;99.90
19220;DHT22;9744;49.364;7.484;2023-04-25T01:49:45;5.80;99.90
19220;DHT22;9744;49.364;7.484;2023-04-25T01:52:12;5.80;99.90
19220;DHT22;9744;49.364;7.484;2023-04-25T01:54:40;5.80;99.90
19220;DHT22;9744;49.364;7.484;2023-04-25T01:57:12;5.80;99.90
19220;DHT22;9744;49.364;7.484;2023-04-25T01:59:41;5.90;99.90
19220;DHT22;9744;49.364;7.484;2023-04-25T02:02:29;5.90;99.90
19220;DHT22;9744;49.364;7.484;2023-04-25T02:04:57;5.90;99.90
19220;DHT22;9744;49.364;7.484;2023-04-25T02:07:26;5.90;99.90
19220;DHT22;9744;49.364;7.484;2023-04-25T02:09:54;5.80;99.90
19220;DHT22;9744;49.364;7.484;2023-04-25T02:12:24;5.90;99.90
19220;DHT22;9744;49.364;7.484;2023-04-25T02:14:57;5.90;99.90
19220;DHT22;9744;49.364;7.484;2023-04-25T02:17:43;5.90;99.90
19220;DHT22;9744;49.364;7.484;2023-04-25T02:20:11;5.80;99.90
19220;DHT22;9744;49.364;7.484;2023-04-25T02:22:39;5.80;99.90
19220;DHT22;9744;49.364;7.484;2023-04-25T02:25:07;5.80;99.90
19220;DHT22;9744;49.364;7.484;2023-04-25T02:27:37;5.80;99.90
19220;DHT22;9744;49.364;7.484;2023-04-25T02:30:05;5.90;99.90
19220;DHT22;9744;49.364;7.484;2023-04-25T02:32:33;6.00;99.90
19220;DHT22;9744;49.364;7.484;2023-04-25T02:35:02;6.20;99.90
19220;DHT22;9744;49.364;7.484;2023-04-25T02:37:30;6.20;99.90
19220;DHT22;9744;49.364;7.484;2023-04-25T02:39:57;6.20;99.90
19220;DHT22;9744;49.364;7.484;2023-04-25T02:42:26;6.30;99.90
19220;DHT22;9744;49.364;7.484;2023-04-25T02:44:54;6.30;99.90
19220;DHT22;9744;49.364;7.484;2023-04-25T02:47:21;6.30;99.90
19220;DHT22;9744;49.364;7.484;2023-04-25T02:49:49;6.40;99.90
19220;DHT22;9744;49.364;7.484;2023-04-25T02:52:16;6.30;99.90
19220;DHT22;9744;49.364;7.484;2023-04-25T02:54:49;6.10;99.90
19220;DHT22;9744;49.364;7.484;2023-04-25T02:57:16;6.10;99.90
19220;DHT22;9744;49.364;7.484;2023-04-25T02:59:44;5.90;99.90
19220;DHT22;9744;49.364;7.484;2023-04-25T03:02:12;6.00;99.90
19220;DHT22;9744;49.364;7.484;2023-04-25T03:04:40;6.10;99.90
19220;DHT22;9744;49.364;7.484;2023-04-25T03:07:07;6.10;99.90
19220;DHT22;9744;49.364;7.484;2023-04-25T03:09:34;6.00;99.90
19220;DHT22;9744;49.364;7.484;2023-04-25T03:12:02;5.90;99.90
19220;DHT22;9744;49.364;7.484;2023-04-25T03:14:36;5.90;99.90
19220;DHT22;9744;49.364;7.484;2023-04-25T03:17:04;6.20;99.90
19220;DHT22;9744;49.364;7.484;2023-04-25T03:19:32;6.20;99.90
19220;DHT22;9744;49.364;7.484;2023-04-25T03:22:00;6.40;99.90
19220;DHT22;9744;49.364;7.484;2023-04-25T03:24:28;6.50;99.90
19220;DHT22;9744;49.364;7.484;2023-04-25T03:26:55;6.40;99.90
19220;DHT22;9744;49.364;7.484;2023-04-25T03:29:23;6.20;99.90
19220;DHT22;9744;49.364;7.484;2023-04-25T03:31:52;6.20;99.90
19220;DHT22;9744;49.364;7.484;2023-04-25T03:34:19;6.40;99.90
19220;DHT22;9744;49.364;7.484;2023-04-25T03:36:49;6.70;99.90
19220;DHT22;9744;49.364;7.484;2023-04-25T03:39:16;6.50;99.90
19220;DHT22;9744;49.364;7.484;2023-04-25T03:41:48;6.50;99.90
19220;DHT22;9744;49.364;7.484;2023-04-25T03:44:17;6.70;99.90
19220;DHT22;9744;49.364;7.484;2023-04-25T03:46:44;6.90;99.90
19220;DHT22;9744;49.364;7.484;2023-04-25T03:49:12;6.90;99.90
19220;DHT22;9744;49.364;7.484;2023-04-25T03:51:59;6.90;99.90
19220;DHT22;9744;49.364;7.484;2023-04-25T03:54:29;7.10;99.90
19220;DHT22;9744;49.364;7.484;2023-04-25T03:57:05;7.20;99.90
19220;DHT22;9744;49.364;7.484;2023-04-25T03:59:35;7.40;99.90
19220;DHT22;9744;49.364;7.484;2023-04-25T04:02:03;7.10;99.90
19220;DHT22;9744;49.364;7.484;2023-04-25T04:04:32;7.00;99.90
19220;DHT22;9744;49.364;7.484;2023-04-25T04:07:02;7.10;99.90
19220;DHT22;9744;49.364;7.484;2023-04-25T04:09:33;7.20;99.90
19220;DHT22;9744;49.364;7.484;2023-04-25T04:12:05;7.30;99.90
19220;DHT22;9744;49.364;7.484;2023-04-25T04:14:33;7.40;99.90
19220;DHT22;9744;49.364;7.484;2023-04-25T04:17:00;7.20;99.90
19220;DHT22;9744;49.364;7.484;2023-04-25T04:19:28;6.80;99.90
19220;DHT22;9744;49.364;7.484;2023-04-25T04:22:24;6.60;99.90
19220;DHT22;9744;49.364;7.484;2023-04-25T04:24:54;6.60;99.90
19220;DHT22;9744;49.364;7.484;2023-04-25T04:27:42;6.60;99.90
19220;DHT22;9744;49.364;7.484;2023-04-25T04:30:36;6.60;99.90
19220;DHT22;9744;49.364;7.484;2023-04-25T04:33:07;6.40;99.90
19220;DHT22;9744;49.364;7.484;2023-04-25T04:35:44;6.40;99.90
19220;DHT22;9744;49.364;7.484;2023-04-25T04:38:13;6.30;99.90
19220;DHT22;9744;49.364;7.484;2023-04-25T04:40:41;6.20;99.90
19220;DHT22;9744;49.364;7.484;2023-04-25T04:43:17;6.10;99.90
19220;DHT22;9744;49.364;7.484;2023-04-25T04:46:10;5.90;99.90
19220;DHT22;9744;49.364;7.484;2023-04-25T04:48:54;5.70;99.90
19220;DHT22;9744;49.364;7.484;2023-04-25T04:52:00;5.60;99.90
19220;DHT22;9744;49.364;7.484;2023-04-25T04:54:52;5.60;99.90
19220;DHT22;9744;49.364;7.484;2023-04-25T04:57:33;5.60;99.90
19220;DHT22;9744;49.364;7.484;2023-04-25T05:00:20;5.60;99.90
19220;DHT22;9744;49.364;7.484;2023-04-25T05:02:47;5.60;99.90
19220;DHT22;9744;49.364;7.484;2023-04-25T05:05:33;5.70;99.90
19220;DHT22;9744;49.364;7.484;2023-04-25T05:08:18;5.70;99.90
19220;DHT22;9744;49.364;7.484;2023-04-25T05:11:13;5.70;99.90
19220;DHT22;9744;49.364;7.484;2023-04-25T05:13:59;5.70;99.90
19220;DHT22;9744;49.364;7.484;2023-04-25T05:16:45;5.80;99.90
19220;DHT22;9744;49.364;7.484;2023-04-25T05:19:32;5.70;99.90
19220;DHT22;9744;49.364;7.484;2023-04-25T05:22:19;5.70;99.90
19220;DHT22;9744;49.364;7.484;2023-04-25T05:25:05;5.80;99.90
19220;DHT22;9744;49.364;7.484;2023-04-25T05:28:06;5.70;99.90
19220;DHT22;9744;49.364;7.484;2023-04-25T05:30:45;5.80;99.90
19220;DHT22;9744;49.364;7.484;2023-04-25T05:33:18;5.90;99.90
19220;DHT22;9744;49.364;7.484;2023-04-25T05:35:46;5.90;99.90
19220;DHT22;9744;49.364;7.484;2023-04-25T05:38:14;5.90;99.90
19220;DHT22;9744;49.364;7.484;2023-04-25T05:41:05;6.00;99.90
19220;DHT22;9744;49.364;7.484;2023-04-25T05:43:44;6.10;99.90
19220;DHT22;9744;49.364;7.484;2023-04-25T05:46:37;6.10;99.90
19220;DHT22;9744;49.364;7.484;2023-04-25T05:49:27;6.30;99.90
19220;DHT22;9744;49.364;7.484;2023-04-25T05:52:03;6.50;99.90
19220;DHT22;9744;49.364;7.484;2023-04-25T05:54:33;6.80;99.90
19220;DHT22;9744;49.364;7.484;2023-04-25T05:57:01;7.00;99.90
19220;DHT22;9744;49.364;7.484;2023-04-25T05:59:30;7.20;99.90
19220;DHT22;9744;49.364;7.484;2023-04-25T06:01:57;7.30;99.90
19220;DHT22;9744;49.364;7.484;2023-04-25T06:04:26;7.50;99.90
19220;DHT22;9744;49.364;7.484;2023-04-25T06:06:54;7.60;99.90
19220;DHT22;9744;49.364;7.484;2023-04-25T06:09:22;7.80;99.90
19220;DHT22;9744;49.364;7.484;2023-04-25T06:11:49;7.80;99.90
19220;DHT22;9744;49.364;7.484;2023-04-25T06:14:16;7.90;99.90
19220;DHT22;9744;49.364;7.484;2023-04-25T06:16:49;8.00;99.90
19220;DHT22;9744;49.364;7.484;2023-04-25T06:19:16;8.00;99.90
19220;DHT22;9744;49.364;7.484;2023-04-25T06:21:44;8.10;99.90
19220;DHT22;9744;49.364;7.484;2023-04-25T06:24:11;8.10;99.90
19220;DHT22;9744;49.364;7.484;2023-04-25T06:26:39;8.10;99.90
19220;DHT22;9744;49.364;7.484;2023-04-25T06:29:06;8.10;99.90
19220;DHT22;9744;49.364;7.484;2023-04-25T06:31:33;8.10;99.90
19220;DHT22;9744;49.364;7.484;2023-04-25T06:34:02;8.10;99.90
19220;DHT22;9744;49.364;7.484;2023-04-25T06:36:32;8.10;99.90
19220;DHT22;9744;49.364;7.484;2023-04-25T06:39:05;8.10;99.90
19220;DHT22;9744;49.364;7.484;2023-04-25T06:41:33;8.10;99.90
19220;DHT22;9744;49.364;7.484;2023-04-25T06:44:05;8.20;99.90
19220;DHT22;9744;49.364;7.484;2023-04-25T06:46:38;8.20;99.90
19220;DHT22;9744;49.364;7.484;2023-04-25T06:49:06;8.20;99.90
19220;DHT22;9744;49.364;7.484;2023-04-25T06:51:33;8.20;99.90
19220;DHT22;9744;49.364;7.484;2023-04-25T06:54:01;8.20;99.90
19220;DHT22;9744;49.364;7.484;2023-04-25T06:56:38;8.20;99.90
19220;DHT22;9744;49.364;7.484;2023-04-25T06:59:10;8.10;99.90
19220;DHT22;9744;49.364;7.484;2023-04-25T07:01:40;8.00;99.90
19220;DHT22;9744;49.364;7.484;2023-04-25T07:04:25;7.80;99.90
19220;DHT22;9744;49.364;7.484;2023-04-25T07:06:55;7.50;99.90
19220;DHT22;9744;49.364;7.484;2023-04-25T07:09:31;7.20;99.90
19220;DHT22;9744;49.364;7.484;2023-04-25T07:11:59;7.10;99.90
19220;DHT22;9744;49.364;7.484;2023-04-25T07:14:28;7.00;99.90
19220;DHT22;9744;49.364;7.484;2023-04-25T07:16:56;6.90;99.90
19220;DHT22;9744;49.364;7.484;2023-04-25T07:19:26;6.80;99.90
19220;DHT22;9744;49.364;7.484;2023-04-25T07:21:58;6.90;99.90
19220;DHT22;9744;49.364;7.484;2023-04-25T07:24:25;6.80;99.90
19220;DHT22;9744;49.364;7.484;2023-04-25T07:26:54;6.90;99.90
19220;DHT22;9744;49.364;7.484;2023-04-25T07:29:45;6.90;99.90
19220;DHT22;9744;49.364;7.484;2023-04-25T07:32:12;6.90;99.90
19220;DHT22;9744;49.364;7.484;2023-04-25T07:34:43;6.90;99.90
19220;DHT22;9744;49.364;7.484;2023-04-25T07:37:10;6.90;99.90
19220;DHT22;9744;49.364;7.484;2023-04-25T07:39:49;6.90;99.90
19220;DHT22;9744;49.364;7.484;2023-04-25T07:42:16;6.60;99.90
19220;DHT22;9744;49.364;7.484;2023-04-25T07:44:44;6.60;99.90
19220;DHT22;9744;49.364;7.484;2023-04-25T07:47:13;6.70;99.90
19220;DHT22;9744;49.364;7.484;2023-04-25T07:49:44;7.10;99.90
19220;DHT22;9744;49.364;7.484;2023-04-25T07:52:11;7.40;99.90
19220;DHT22;9744;49.364;7.484;2023-04-25T07:54:44;7.60;99.90
19220;DHT22;9744;49.364;7.484;2023-04-25T07:57:16;7.90;99.90
19220;DHT22;9744;49.364;7.484;2023-04-25T07:59:45;8.10;99.90
19220;DHT22;9744;49.364;7.484;2023-04-25T08:02:13;8.20;99.90
19220;DHT22;9744;49.364;7.484;2023-04-25T08:04:40;8.30;99.90
19220;DHT22;9744;49.364;7.484;2023-04-25T08:07:10;8.40;99.90
19220;DHT22;9744;49.364;7.484;2023-04-25T08:09:45;8.50;99.90
19220;DHT22;9744;49.364;7.484;2023-04-25T08:12:21;8.60;99.90
19220;DHT22;9744;49.364;7.484;2023-04-25T08:14:49;8.60;99.90
19220;DHT22;9744;49.364;7.484;2023-04-25T08:17:16;8.70;99.90
19220;DHT22;9744;49.364;7.484;2023-04-25T08:19:44;8.80;99.90
19220;DHT22;9744;49.364;7.484;2023-04-25T08:22:22;8.90;99.90
19220;DHT22;9744;49.364;7.484;2023-04-25T08:24:55;8.90;99.90
19220;DHT22;9744;49.364;7.484;2023-04-25T08:27:22;9.10;99.90
19220;DHT22;9744;49.364;7.484;2023-04-25T08:29:50;9.10;99.90
19220;DHT22;9744;49.364;7.484;2023-04-25T08:32:18;9.10;99.90
19220;DHT22;9744;49.364;7.484;2023-04-25T08:35:03;9.20;99.90
19220;DHT22;9744;49.364;7.484;2023-04-25T08:37:32;9.20;99.90
19220;DHT22;9744;49.364;7.484;2023-04-25T08:40:11;9.10;99.90
19220;DHT22;9744;49.364;7.484;2023-04-25T08:42:50;9.10;99.90
19220;DHT22;9744;49.364;7.484;2023-04-25T08:45:19;9.10;99.90
19220;DHT22;9744;49.364;7.484;2023-04-25T08:47:47;9.00;99.90
19220;DHT22;9744;49.364;7.484;2023-04-25T08:50:19;9.00;99.90
19220;DHT22;9744;49.364;7.484;2023-04-25T08:52:50;9.10;99.90
19220;DHT22;9744;49.364;7.484;2023-04-25T08:55:20;9.00;99.90
19220;DHT22;9744;49.364;7.484;2023-04-25T08:57:57;9.00;99.90
19220;DHT22;9744;49.364;7.484;2023-04-25T09:00:26;9.00;99.90
19220;DHT22;9744;49.364;7.484;2023-04-25T09:02:57;9.10;99.90
19220;DHT22;9744;49.364;7.484;2023-04-25T09:05:29;9.20;99.90
19220;DHT22;9744;49.364;7.484;2023-04-25T09:07:58;9.30;99.90
19220;DHT22;9744;49.364;7.484;2023-04-25T09:10:27;9.40;99.90
19220;DHT22;9744;49.364;7.484;2023-04-25T09:13:04;9.50;99.90
19220;DHT22;9744;49.364;7.484;2023-04-25T09:15:49;9.60;99.90
19220;DHT22;9744;49.364;7.484;2023-04-25T09:18:49;9.60;99.90
19220;DHT22;9744;49.364;7.484;2023-04-25T09:21:17;9.70;99.90
19220;DHT22;9744;49.364;7.484;2023-04-25T09:23:50;9.70;99.90
19220;DHT22;9744;49.364;7.484;2023-04-25T09:26:20;9.70;99.90
19220;DHT22;9744;49.364;7.484;2023-04-25T09:28:48;9.80;99.90
19220;DHT22;9744;49.364;7.484;2023-04-25T09:31:21;9.90;99.90
19220;DHT22;9744;49.364;7.484;2023-04-25T09:33:58;10.00;99.90
19220;DHT22;9744;49.364;7.484;2023-04-25T09:36:27;10.10;99.90
19220;DHT22;9744;49.364;7.484;2023-04-25T09:39:22;10.10;99.90
19220;DHT22;9744;49.364;7.484;2023-04-25T09:41:57;10.10;99.90
19220;DHT22;9744;49.364;7.484;2023-04-25T09:44:25;10.20;99.90
19220;DHT22;9744;49.364;7.484;2023-04-25T09:46:54;10.30;99.90
19220;DHT22;9744;49.364;7.484;2023-04-25T09:49:25;10.40;99.90
19220;DHT22;9744;49.364;7.484;2023-04-25T09:52:17;10.40;99.90
19220;DHT22;9744;49.364;7.484;2023-04-25T09:54:58;10.50;99.90
19220;DHT22;9744;49.364;7.484;2023-04-25T09:57:32;10.50;99.90
19220;DHT22;9744;49.364;7.484;2023-04-25T10:00:01;10.60;99.90
19220;DHT22;9744;49.364;7.484;2023-04-25T10:02:42;10.70;99.90
19220;DHT22;9744;49.364;7.484;2023-04-25T10:05:34;10.90;99.90
19220;DHT22;9744;49.364;7.484;2023-04-25T10:08:03;11.10;99.90
19220;DHT22;9744;49.364;7.484;2023-04-25T10:10:33;11.20;99.90
19220;DHT22;9744;49.364;7.484;2023-04-25T10:13:04;11.30;99.90
19220;DHT22;9744;49.364;7.484;2023-04-25T10:15:34;11.40;99.90
19220;DHT22;9744;49.364;7.484;2023-04-25T10:18:02;11.50;99.90
19220;DHT22;9744;49.364;7.484;2023-04-25T10:20:30;11.50;99.90
19220;DHT22;9744;49.364;7.484;2023-04-25T10:23:03;11.50;99.90
19220;DHT22;9744;49.364;7.484;2023-04-25T10:25:31;11.50;99.90
19220;DHT22;9744;49.364;7.484;2023-04-25T10:28:00;11.50;99.90
19220;DHT22;9744;49.364;7.484;2023-04-25T10:30:30;11.40;99.90
19220;DHT22;9744;49.364;7.484;2023-04-25T10:32:58;11.30;99.90
19220;DHT22;9744;49.364;7.484;2023-04-25T10:35:27;11.30;99.90
19220;DHT22;9744;49.364;7.484;2023-04-25T10:38:04;11.30;99.90
19220;DHT22;9744;49.364;7.484;2023-04-25T10:40:32;11.30;99.90
19220;DHT22;9744;49.364;7.484;2023-04-25T10:43:35;11.40;99.90
19220;DHT22;9744;49.364;7.484;2023-04-25T10:46:13;11.60;99.90
19220;DHT22;9744;49.364;7.484;2023-04-25T10:48:45;11.80;99.90
19220;DHT22;9744;49.364;7.484;2023-04-25T10:51:18;12.00;99.90
19220;DHT22;9744;49.364;7.484;2023-04-25T10:53:46;12.30;99.90
19220;DHT22;9744;49.364;7.484;2023-04-25T10:56:17;12.70;99.90
19220;DHT22;9744;49.364;7.484;2023-04-25T10:58:48;13.00;99.90
19220;DHT22;9744;49.364;7.484;2023-04-25T11:01:20;13.40;99.90
19220;DHT22;9744;49.364;7.484;2023-04-25T11:03:47;13.60;99.90
19220;DHT22;9744;49.364;7.484;2023-04-25T11:06:22;13.70;99.90
19220;DHT22;9744;49.364;7.484;2023-04-25T11:08:51;13.80;99.90
19220;DHT22;9744;49.364;7.484;2023-04-25T11:11:19;13.80;99.90
19220;DHT22;9744;49.364;7.484;2023-04-25T11:13:49;13.90;99.90
19220;DHT22;9744;49.364;7.484;2023-04-25T11:16:17;14.00;99.90
19220;DHT22;9744;49.364;7.484;2023-04-25T11:18:45;14.10;99.90
19220;DHT22;9744;49.364;7.484;2023-04-25T11:21:13;14.20;99.90
19220;DHT22;9744;49.364;7.484;2023-04-25T11:23:40;14.30;99.90
19220;DHT22;9744;49.364;7.484;2023-04-25T11:26:08;14.30;99.90
19220;DHT22;9744;49.364;7.484;2023-04-25T11:28:37;14.40;99.90
19220;DHT22;9744;49.364;7.484;2023-04-25T11:31:07;14.50;99.90
19220;DHT22;9744;49.364;7.484;2023-04-25T11:33:37;14.40;99.90
19220;DHT22;9744;49.364;7.484;2023-04-25T11:36:07;14.30;99.90
19220;DHT22;9744;49.364;7.484;2023-04-25T11:38:35;14.20;99.90
19220;DHT22;9744;49.364;7.484;2023-04-25T11:41:04;14.10;99.90
19220;DHT22;9744;49.364;7.484;2023-04-25T11:43:48;14.10;99.90
19220;DHT22;9744;49.364;7.484;2023-04-25T11:50:22;13.90;99.90
19220;DHT22;9744;49.364;7.484;2023-04-25T11:53:05;14.10;99.90
19220;DHT22;9744;49.364;7.484;2023-04-25T11:55:52;14.20;99.90
19220;DHT22;9744;49.364;7.484;2023-04-25T11:59:05;14.20;99.90
19220;DHT22;9744;49.364;7.484;2023-04-25T12:01:53;14.30;99.90
19220;DHT22;9744;49.364;7.484;2023-04-25T12:09:01;14.20;99.90
19220;DHT22;9744;49.364;7.484;2023-04-25T12:11:44;14.10;99.90
19220;DHT22;9744;49.364;7.484;2023-04-25T12:14:29;14.10;99.90
19220;DHT22;9744;49.364;7.484;2023-04-25T12:17:33;14.10;99.90
19220;DHT22;9744;49.364;7.484;2023-04-25T13:14:30;18.60;99.90
19220;DHT22;9744;49.364;7.484;2023-04-25T13:51:05;16.40;99.90
19220;DHT22;9744;49.364;7.484;2023-04-25T13:53:38;16.20;99.90
19220;DHT22;9744;49.364;7.484;2023-04-25T13:56:18;16.10;99.90
19220;DHT22;9744;49.364;7.484;2023-04-25T14:00:05;16.00;99.90
19220;DHT22;9744;49.364;7.484;2023-04-25T14:22:12;15.40;99.90
19220;DHT22;9744;49.364;7.484;2023-04-25T14:25:07;15.40;99.90
19220;DHT22;9744;49.364;7.484;2023-04-25T14:27:54;15.40;99.90
19220;DHT22;9744;49.364;7.484;2023-04-25T14:34:54;15.70;99.90
19220;DHT22;9744;49.364;7.484;2023-04-25T14:59:08;15.10;99.90
19220;DHT22;9744;49.364;7.484;2023-04-25T15:05:38;15.80;99.90
19220;DHT22;9744;49.364;7.484;2023-04-25T15:11:44;15.60;99.90
19220;DHT22;9744;49.364;7.484;2023-04-25T15:14:36;15.50;99.90
19220;DHT22;9744;49.364;7.484;2023-04-25T15:17:08;15.40;99.90
19220;DHT22;9744;49.364;7.484;2023-04-25T15:23:29;15.30;99.90
19220;DHT22;9744;49.364;7.484;2023-04-25T15:38:09;14.60;99.90
19220;DHT22;9744;49.364;7.484;2023-04-25T15:40:37;14.80;99.90
19220;DHT22;9744;49.364;7.484;2023-04-25T15:43:04;14.70;99.90
19220;DHT22;9744;49.364;7.484;2023-04-25T15:45:32;14.60;99.90
19220;DHT22;9744;49.364;7.484;2023-04-25T15:48:00;14.60;99.90
19220;DHT22;9744;49.364;7.484;2023-04-25T15:50:27;14.60;99.90
19220;DHT22;9744;49.364;7.484;2023-04-25T15:52:55;14.50;99.90
19220;DHT22;9744;49.364;7.484;2023-04-25T15:55:24;14.50;99.90
19220;DHT22;9744;49.364;7.484;2023-04-25T15:57:52;14.40;99.90
19220;DHT22;9744;49.364;7.484;2023-04-25T16:00:20;14.30;99.90
19220;DHT22;9744;49.364;7.484;2023-04-25T16:02:48;14.20;99.90
19220;DHT22;9744;49.364;7.484;2023-04-25T16:05:15;14.20;99.90
19220;DHT22;9744;49.364;7.484;2023-04-25T16:07:43;14.10;99.90
19220;DHT22;9744;49.364;7.484;2023-04-25T16:10:12;14.00;99.90
19220;DHT22;9744;49.364;7.484;2023-04-25T16:12:41;14.00;99.90
19220;DHT22;9744;49.364;7.484;2023-04-25T16:15:08;13.90;99.90
19220;DHT22;9744;49.364;7.484;2023-04-25T16:17:36;13.80;99.90
19220;DHT22;9744;49.364;7.484;2023-04-25T16:20:04;13.70;99.90
19220;DHT22;9744;49.364;7.484;2023-04-25T16:22:35;13.60;99.90
19220;DHT22;9744;49.364;7.484;2023-04-25T16:25:04;13.50;99.90
19220;DHT22;9744;49.364;7.484;2023-04-25T16:27:32;13.50;99.90
19220;DHT22;9744;49.364;7.484;2023-04-25T16:30:02;13.40;99.90
19220;DHT22;9744;49.364;7.484;2023-04-25T16:32:31;13.40;99.90
19220;DHT22;9744;49.364;7.484;2023-04-25T16:34:58;13.20;99.90
19220;DHT22;9744;49.364;7.484;2023-04-25T16:37:25;13.20;99.90
19220;DHT22;9744;49.364;7.484;2023-04-25T16:39:52;13.20;99.90
19220;DHT22;9744;49.364;7.484;2023-04-25T16:42:20;13.10;99.90
19220;DHT22;9744;49.364;7.484;2023-04-25T16:44:47;13.10;99.90
19220;DHT22;9744;49.364;7.484;2023-04-25T16:47:16;12.40;99.90
19220;DHT22;9744;49.364;7.484;2023-04-25T16:49:43;13.00;99.90
19220;DHT22;9744;49.364;7.484;2023-04-25T16:52:11;13.00;99.90
19220;DHT22;9744;49.364;7.484;2023-04-25T16:54:39;12.90;99.90
19220;DHT22;9744;49.364;7.484;2023-04-25T16:57:06;12.90;99.90
19220;DHT22;9744;49.364;7.484;2023-04-25T16:59:36;12.80;99.90
19220;DHT22;9744;49.364;7.484;2023-04-25T17:02:04;12.80;99.90
19220;DHT22;9744;49.364;7.484;2023-04-25T17:04:34;12.70;99.90
19220;DHT22;9744;49.364;7.484;2023-04-25T17:07:01;12.50;99.90
19220;DHT22;9744;49.364;7.484;2023-04-25T17:09:28;12.40;99.90
19220;DHT22;9744;49.364;7.484;2023-04-25T17:11:57;12.30;99.90
19220;DHT22;9744;49.364;7.484;2023-04-25T17:14:25;12.30;99.90
19220;DHT22;9744;49.364;7.484;2023-04-25T17:16:52;12.20;99.90
19220;DHT22;9744;49.364;7.484;2023-04-25T17:19:19;12.20;99.90
19220;DHT22;9744;49.364;7.484;2023-04-25T17:21:50;12.20;99.90
19220;DHT22;9744;49.364;7.484;2023-04-25T17:24:17;12.20;99.90
19220;DHT22;9744;49.364;7.484;2023-04-25T17:26:46;12.10;99.90
19220;DHT22;9744;49.364;7.484;2023-04-25T17:29:14;12.00;99.90
19220;DHT22;9744;49.364;7.484;2023-04-25T17:31:43;12.00;99.90
19220;DHT22;9744;49.364;7.484;2023-04-25T17:34:10;12.00;99.90
19220;DHT22;9744;49.364;7.484;2023-04-25T17:36:42;12.00;99.90
19220;DHT22;9744;49.364;7.484;2023-04-25T17:39:12;12.00;99.90
19220;DHT22;9744;49.364;7.484;2023-04-25T17:41:42;11.90;99.90
19220;DHT22;9744;49.364;7.484;2023-04-25T17:44:09;11.90;99.90
19220;DHT22;9744;49.364;7.484;2023-04-25T17:46:36;11.90;99.90
19220;DHT22;9744;49.364;7.484;2023-04-25T17:49:04;11.80;99.90
19220;DHT22;9744;49.364;7.484;2023-04-25T17:51:31;11.90;99.90
19220;DHT22;9744;49.364;7.484;2023-04-25T17:53:58;11.80;99.90
19220;DHT22;9744;49.364;7.484;2023-04-25T17:56:27;11.80;99.90
19220;DHT22;9744;49.364;7.484;2023-04-25T17:58:57;11.80;99.90
19220;DHT22;9744;49.364;7.484;2023-04-25T18:01:24;11.70;99.90
19220;DHT22;9744;49.364;7.484;2023-04-25T18:03:52;11.70;99.90
19220;DHT22;9744;49.364;7.484;2023-04-25T18:06:19;11.70;99.90
19220;DHT22;9744;49.364;7.484;2023-04-25T18:08:46;11.70;99.90
19220;DHT22;9744;49.364;7.484;2023-04-25T18:11:14;11.60;99.90
19220;DHT22;9744;49.364;7.484;2023-04-25T18:13:43;11.60;99.90
19220;DHT22;9744;49.364;7.484;2023-04-25T18:16:10;11.60;99.90
19220;DHT22;9744;49.364;7.484;2023-04-25T18:18:37;11.50;99.90
19220;DHT22;9744;49.364;7.484;2023-04-25T18:21:07;11.50;99.90
19220;DHT22;9744;49.364;7.484;2023-04-25T18:23:35;11.50;99.90
19220;DHT22;9744;49.364;7.484;2023-04-25T18:26:03;11.50;99.90
19220;DHT22;9744;49.364;7.484;2023-04-25T18:28:31;11.40;99.90
19220;DHT22;9744;49.364;7.484;2023-04-25T18:31:00;11.40;99.90
19220;DHT22;9744;49.364;7.484;2023-04-25T18:33:27;11.30;99.90
19220;DHT22;9744;49.364;7.484;2023-04-25T18:35:54;11.30;99.90
19220;DHT22;9744;49.364;7.484;2023-04-25T18:38:23;11.30;99.90
19220;DHT22;9744;49.364;7.484;2023-04-25T18:40:51;11.20;99.90
19220;DHT22;9744;49.364;7.484;2023-04-25T18:43:18;11.20;99.90
19220;DHT22;9744;49.364;7.484;2023-04-25T18:45:45;11.10;99.90
19220;DHT22;9744;49.364;7.484;2023-04-25T18:48:14;11.10;99.90
19220;DHT22;9744;49.364;7.484;2023-04-25T18:50:41;11.00;99.90
19220;DHT22;9744;49.364;7.484;2023-04-25T18:53:08;10.90;99.90
19220;DHT22;9744;49.364;7.484;2023-04-25T18:55:36;10.90;99.90
19220;DHT22;9744;49.364;7.484;2023-04-25T18:58:03;10.80;99.90
19220;DHT22;9744;49.364;7.484;2023-04-25T19:00:31;10.90;99.90
19220;DHT22;9744;49.364;7.484;2023-04-25T19:02:58;10.70;99.90
19220;DHT22;9744;49.364;7.484;2023-04-25T19:05:29;10.70;99.90
19220;DHT22;9744;49.364;7.484;2023-04-25T19:07:57;10.60;99.90
19220;DHT22;9744;49.364;7.484;2023-04-25T19:10:25;10.60;99.90
19220;DHT22;9744;49.364;7.484;2023-04-25T19:12:53;10.60;99.90